Time;durP1;ratioP1;P1;durP2;ratioP2;P2;SDS_P1;SDS_P2;PMS_P1;PMS_P2;Temp;Humidity;BMP_temperature;BMP_pressure;BME280_temperature;BME280_humidity;BME280_pressure;Samples;Min_cycle;Max_cycle;Signal;HPM_P1;HPM_P2
2024/04/06 00:02:06;;;;;;;14.98;2.65;;;10.30;100.00;;;;;;5000614;28;20093;-76
2024/04/06 00:04:33;;;;;;;16.88;3.17;;;10.20;100.00;;;;;;5004068;28;20057;-76
2024/04/06 00:06:59;;;;;;;21.30;2.95;;;10.20;100.00;;;;;;5015922;28;20093;-76
2024/04/06 00:09:25;;;;;;;12.57;2.22;;;10.20;100.00;;;;;;5015996;28;20081;-76
2024/04/06 00:11:50;;;;;;;18.70;3.60;;;10.10;100.00;;;;;;5007621;28;20066;-76
2024/04/06 00:14:19;;;;;;;16.52;3.97;;;10.10;100.00;;;;;;5007912;28;20054;-76
2024/04/06 00:16:45;;;;;;;14.35;2.97;;;10.10;100.00;;;;;;5009938;28;20054;-76
2024/04/06 00:19:12;;;;;;;15.82;2.97;;;10.00;100.00;;;;;;5006873;28;20050;-76
2024/04/06 00:21:37;;;;;;;20.30;3.00;;;10.10;100.00;;;;;;4988370;28;20056;-76
2024/04/06 00:24:03;;;;;;;23.52;3.65;;;10.10;100.00;;;;;;5015663;28;20081;-76
2024/04/06 00:26:29;;;;;;;27.80;3.38;;;10.10;100.00;;;;;;4994046;28;20062;-76
2024/04/06 00:28:55;;;;;;;17.67;3.10;;;10.10;100.00;;;;;;5012645;28;20049;-76
2024/04/06 00:31:21;;;;;;;13.38;3.05;;;10.10;100.00;;;;;;5008642;28;20050;-77
2024/04/06 00:33:47;;;;;;;16.73;2.90;;;10.10;100.00;;;;;;5010204;28;20050;-76
2024/04/06 00:36:13;;;;;;;11.75;3.15;;;10.10;100.00;;;;;;4982017;28;20054;-76
2024/04/06 00:38:39;;;;;;;8.00;2.60;;;10.10;100.00;;;;;;4993571;28;20049;-76
2024/04/06 00:41:05;;;;;;;11.60;2.80;;;10.20;100.00;;;;;;4992673;28;20087;-76
2024/04/06 00:43:32;;;;;;;15.38;3.28;;;10.20;100.00;;;;;;4992740;28;20064;-76
2024/04/06 00:45:58;;;;;;;13.82;2.85;;;10.20;100.00;;;;;;4994133;28;20212;-76
2024/04/06 00:48:24;;;;;;;21.95;3.05;;;10.20;100.00;;;;;;4988311;28;20050;-76
2024/04/06 00:50:53;;;;;;;13.48;3.28;;;10.20;100.00;;;;;;5005581;28;20057;-77
2024/04/06 00:53:19;;;;;;;18.27;2.88;;;10.20;100.00;;;;;;5012247;28;20084;-77
2024/04/06 00:55:46;;;;;;;14.40;2.83;;;10.30;100.00;;;;;;5012390;28;20502;-76
2024/04/06 00:58:12;;;;;;;14.60;2.92;;;10.30;100.00;;;;;;5004542;28;20053;-77
2024/04/06 01:00:38;;;;;;;13.98;2.88;;;10.30;100.00;;;;;;4995229;28;20109;-76
2024/04/06 01:03:04;;;;;;;25.20;2.72;;;10.30;100.00;;;;;;4982819;28;20530;-76
2024/04/06 01:05:30;;;;;;;17.27;3.45;;;10.30;100.00;;;;;;4995873;28;20136;-77
2024/04/06 01:07:57;;;;;;;11.30;2.92;;;10.20;100.00;;;;;;5012450;28;20052;-77
2024/04/06 01:10:23;;;;;;;10.10;2.88;;;10.20;100.00;;;;;;4995857;28;20053;-77
2024/04/06 01:12:49;;;;;;;18.65;3.25;;;10.10;100.00;;;;;;5003399;28;20058;-77
2024/04/06 01:15:15;;;;;;;19.98;3.05;;;10.10;100.00;;;;;;4990617;28;20064;-77
2024/04/06 01:17:41;;;;;;;21.70;3.33;;;10.10;100.00;;;;;;5009466;28;20061;-77
2024/04/06 01:20:07;;;;;;;9.95;3.45;;;10.10;100.00;;;;;;4991709;28;20057;-77
2024/04/06 01:22:34;;;;;;;12.95;3.00;;;10.00;100.00;;;;;;5014995;28;20064;-76
2024/04/06 01:25:00;;;;;;;13.80;2.90;;;10.00;100.00;;;;;;5010719;28;20058;-76
2024/04/06 01:27:28;;;;;;;13.75;2.88;;;10.00;100.00;;;;;;5006027;28;20073;-76
2024/04/06 01:29:54;;;;;;;11.93;2.45;;;10.10;100.00;;;;;;5007337;28;20072;-76
2024/04/06 01:32:20;;;;;;;15.85;3.55;;;10.00;100.00;;;;;;4982617;28;20581;-76
2024/04/06 01:34:46;;;;;;;15.90;4.22;;;10.10;100.00;;;;;;4986791;28;20053;-76
2024/04/06 01:37:13;;;;;;;13.35;2.65;;;10.10;100.00;;;;;;5007782;28;20045;-76
2024/04/06 01:39:39;;;;;;;14.52;3.30;;;10.10;100.00;;;;;;5005389;28;20060;-76
2024/04/06 01:42:05;;;;;;;13.70;2.28;;;10.10;100.00;;;;;;5002878;28;20129;-77
2024/04/06 01:44:31;;;;;;;15.60;2.75;;;10.10;100.00;;;;;;4989791;28;20054;-78
2024/04/06 01:46:56;;;;;;;20.80;3.13;;;10.10;100.00;;;;;;5003355;28;20058;-76
2024/04/06 01:49:22;;;;;;;23.33;2.83;;;10.10;100.00;;;;;;5011745;28;20060;-77
2024/04/06 01:51:48;;;;;;;13.60;3.53;;;10.10;100.00;;;;;;5009521;28;20060;-77
2024/04/06 01:54:14;;;;;;;9.70;2.97;;;10.20;100.00;;;;;;5005027;28;20550;-76
2024/04/06 01:56:40;;;;;;;13.38;3.10;;;10.20;100.00;;;;;;5010282;28;20061;-77
2024/04/06 01:59:08;;;;;;;24.63;3.13;;;10.20;100.00;;;;;;5006601;28;20052;-77
2024/04/06 02:01:34;;;;;;;16.05;3.75;;;10.20;100.00;;;;;;5014649;28;20061;-77
2024/04/06 02:03:59;;;;;;;11.45;2.83;;;10.10;100.00;;;;;;5009425;28;20053;-77
2024/04/06 02:06:25;;;;;;;20.00;2.97;;;10.10;100.00;;;;;;4989448;28;20053;-77
2024/04/06 02:08:51;;;;;;;20.27;3.40;;;10.10;100.00;;;;;;4986527;28;20079;-77
2024/04/06 02:11:17;;;;;;;9.00;3.17;;;10.20;100.00;;;;;;5002936;28;20111;-77
2024/04/06 02:13:43;;;;;;;19.30;3.00;;;10.10;100.00;;;;;;4994739;28;20443;-77
2024/04/06 02:16:09;;;;;;;16.63;3.10;;;10.20;100.00;;;;;;5002776;28;20079;-77
2024/04/06 02:18:34;;;;;;;14.85;3.13;;;10.20;100.00;;;;;;4986569;28;20050;-77
2024/04/06 02:21:00;;;;;;;23.30;3.05;;;10.20;100.00;;;;;;5002577;28;20418;-76
2024/04/06 02:23:26;;;;;;;19.25;3.20;;;10.20;100.00;;;;;;5010043;28;20049;-76
2024/04/06 02:25:52;;;;;;;17.13;3.38;;;10.20;100.00;;;;;;4994300;28;20061;-77
2024/04/06 02:28:18;;;;;;;20.27;3.15;;;10.20;100.00;;;;;;5007319;28;20069;-77
2024/04/06 02:30:45;;;;;;;16.08;2.75;;;10.20;100.00;;;;;;5007390;28;20058;-77
2024/04/06 02:33:10;;;;;;;11.88;2.88;;;10.20;100.00;;;;;;4991962;28;20057;-77
2024/04/06 02:35:36;;;;;;;17.95;3.72;;;10.20;100.00;;;;;;4997989;28;20100;-77
2024/04/06 02:38:02;;;;;;;12.05;3.78;;;10.20;100.00;;;;;;5003461;28;20049;-77
2024/04/06 02:40:28;;;;;;;19.88;3.03;;;10.20;100.00;;;;;;5003442;28;20495;-76
2024/04/06 02:42:54;;;;;;;14.55;3.17;;;10.10;100.00;;;;;;5002452;28;20065;-77
2024/04/06 02:45:19;;;;;;;14.68;3.35;;;10.10;100.00;;;;;;4985944;28;20046;-77
2024/04/06 02:47:45;;;;;;;18.08;3.78;;;10.20;100.00;;;;;;5011272;28;20053;-77
2024/04/06 02:50:11;;;;;;;15.93;2.45;;;10.20;100.00;;;;;;5014557;28;20060;-77
2024/04/06 02:52:37;;;;;;;10.00;3.22;;;10.20;100.00;;;;;;5012468;28;20116;-76
2024/04/06 02:55:06;;;;;;;12.00;2.95;;;10.20;100.00;;;;;;5010368;28;20611;-77
2024/04/06 02:57:33;;;;;;;17.23;4.30;;;10.20;100.00;;;;;;4987726;28;20120;-77
2024/04/06 02:59:58;;;;;;;13.93;3.40;;;10.30;100.00;;;;;;4993563;28;20049;-77
2024/04/06 03:02:25;;;;;;;18.08;3.50;;;10.30;100.00;;;;;;4981563;28;20049;-77
2024/04/06 03:04:51;;;;;;;23.88;3.47;;;10.30;100.00;;;;;;5005237;28;20058;-76
2024/04/06 03:07:17;;;;;;;16.05;3.33;;;10.30;100.00;;;;;;4994209;28;20053;-77
2024/04/06 03:09:43;;;;;;;11.35;3.00;;;10.40;100.00;;;;;;5015140;28;20076;-77
2024/04/06 03:12:09;;;;;;;11.80;3.25;;;10.40;100.00;;;;;;5013115;28;20081;-77
2024/04/06 03:14:34;;;;;;;10.85;2.83;;;10.40;100.00;;;;;;5008013;28;20061;-77
2024/04/06 03:17:00;;;;;;;12.63;3.10;;;10.40;100.00;;;;;;5012016;28;20046;-77
2024/04/06 03:19:26;;;;;;;14.10;3.25;;;10.40;100.00;;;;;;5008753;28;20145;-77
2024/04/06 03:21:52;;;;;;;17.33;3.42;;;10.40;100.00;;;;;;5015593;28;20057;-77
2024/04/06 03:24:18;;;;;;;18.25;3.10;;;10.50;100.00;;;;;;5001284;28;20124;-77
2024/04/06 03:26:44;;;;;;;13.50;2.97;;;10.50;100.00;;;;;;5003896;28;20050;-77
2024/04/06 03:29:11;;;;;;;20.08;3.95;;;10.50;100.00;;;;;;5005284;28;20080;-77
2024/04/06 03:31:37;;;;;;;11.93;3.03;;;10.50;100.00;;;;;;4990639;28;20053;-77
2024/04/06 03:34:03;;;;;;;13.20;3.42;;;10.50;100.00;;;;;;5005387;28;20045;-77
2024/04/06 03:36:29;;;;;;;11.32;3.10;;;10.50;100.00;;;;;;4997457;28;20049;-76
2024/04/06 03:38:55;;;;;;;16.70;3.10;;;10.60;100.00;;;;;;5011846;28;20064;-77
2024/04/06 03:41:21;;;;;;;16.10;2.83;;;10.60;100.00;;;;;;5006483;28;20161;-77
2024/04/06 03:43:47;;;;;;;12.75;3.20;;;10.60;100.00;;;;;;5006701;28;20057;-77
2024/04/06 03:46:13;;;;;;;9.70;3.35;;;10.60;100.00;;;;;;5005848;28;20061;-77
2024/04/06 03:48:40;;;;;;;16.42;3.17;;;10.70;100.00;;;;;;5009227;28;20050;-77
2024/04/06 03:51:07;;;;;;;16.48;2.85;;;10.70;100.00;;;;;;4993644;28;20057;-77
2024/04/06 03:53:35;;;;;;;13.23;3.35;;;10.60;100.00;;;;;;4996686;28;20065;-77
2024/04/06 03:56:01;;;;;;;11.05;3.28;;;10.70;100.00;;;;;;4989189;28;20049;-77
2024/04/06 03:58:27;;;;;;;16.58;3.28;;;10.70;100.00;;;;;;4990636;28;20050;-77
2024/04/06 04:00:53;;;;;;;9.57;3.55;;;10.70;100.00;;;;;;5006575;28;20124;-77
2024/04/06 04:03:20;;;;;;;17.85;3.55;;;10.70;100.00;;;;;;5016963;28;20049;-77
2024/04/06 04:05:45;;;;;;;23.30;4.15;;;10.70;100.00;;;;;;4991186;28;20050;-77
2024/04/06 04:08:11;;;;;;;20.83;4.35;;;10.70;100.00;;;;;;4993518;28;20052;-77
2024/04/06 04:10:37;;;;;;;20.73;4.00;;;10.70;100.00;;;;;;4989389;28;20058;-77
2024/04/06 04:13:09;;;;;;;11.23;3.28;;;10.70;100.00;;;;;;5005275;28;20065;-77
2024/04/06 04:15:39;;;;;;;14.95;3.50;;;10.80;100.00;;;;;;5002340;28;20056;-77
2024/04/06 04:18:06;;;;;;;14.15;3.40;;;10.80;100.00;;;;;;5007941;28;20061;-77
2024/04/06 04:20:32;;;;;;;17.52;3.85;;;10.80;100.00;;;;;;4999616;28;20046;-77
2024/04/06 04:23:00;;;;;;;13.10;3.60;;;10.80;100.00;;;;;;5005960;28;20103;-77
2024/04/06 04:25:28;;;;;;;10.27;2.70;;;10.80;100.00;;;;;;4987912;28;20069;-77
2024/04/06 04:27:58;;;;;;;11.93;3.30;;;10.80;100.00;;;;;;5003928;28;20501;-77
2024/04/06 04:30:24;;;;;;;19.63;4.00;;;10.80;100.00;;;;;;4987610;28;20065;-77
2024/04/06 04:32:51;;;;;;;22.20;3.17;;;10.90;100.00;;;;;;5004204;28;20053;-77
2024/04/06 04:35:17;;;;;;;14.52;3.60;;;10.80;100.00;;;;;;5004643;28;20096;-77
2024/04/06 04:37:43;;;;;;;6.72;2.53;;;10.80;100.00;;;;;;5006567;28;20061;-77
2024/04/06 04:40:09;;;;;;;11.52;3.53;;;10.80;100.00;;;;;;5005372;28;20052;-77
2024/04/06 04:42:35;;;;;;;11.35;3.28;;;10.80;100.00;;;;;;5001209;28;20065;-77
2024/04/06 04:45:10;;;;;;;13.05;3.65;;;10.80;100.00;;;;;;5013387;28;20058;-80
2024/04/06 04:47:37;;;;;;;10.50;3.70;;;10.80;100.00;;;;;;4985576;28;20062;-77
2024/04/06 04:50:03;;;;;;;11.38;4.18;;;10.70;100.00;;;;;;4992244;28;21049;-78
2024/04/06 04:52:30;;;;;;;12.60;3.97;;;10.80;100.00;;;;;;5005843;28;20049;-78
2024/04/06 04:54:56;;;;;;;10.45;3.75;;;10.80;100.00;;;;;;4987306;28;20606;-78
2024/04/06 04:57:21;;;;;;;9.75;3.63;;;10.80;100.00;;;;;;5012409;28;20129;-78
2024/04/06 04:59:47;;;;;;;16.90;4.13;;;10.80;100.00;;;;;;5003122;28;20481;-78
2024/04/06 05:02:15;;;;;;;11.43;3.97;;;10.80;100.00;;;;;;4995807;28;20419;-78
2024/04/06 05:04:41;;;;;;;17.73;4.68;;;10.80;100.00;;;;;;5006609;28;20060;-78
2024/04/06 05:07:07;;;;;;;21.20;4.40;;;10.70;100.00;;;;;;5008490;28;20053;-80
2024/04/06 05:09:33;;;;;;;9.80;4.03;;;10.70;100.00;;;;;;5004311;28;20716;-78
2024/04/06 05:11:59;;;;;;;13.50;4.20;;;10.70;100.00;;;;;;5004225;28;20153;-78
2024/04/06 05:14:24;;;;;;;10.68;3.63;;;10.80;100.00;;;;;;5002254;28;20053;-78
2024/04/06 05:16:50;;;;;;;15.38;4.20;;;10.70;100.00;;;;;;4993673;28;20058;-78
2024/04/06 05:19:16;;;;;;;10.77;4.13;;;10.70;100.00;;;;;;4991801;28;20060;-77
2024/04/06 05:21:42;;;;;;;12.05;4.28;;;10.70;100.00;;;;;;5005451;28;20054;-77
2024/04/06 05:24:08;;;;;;;14.65;4.68;;;10.80;100.00;;;;;;4993375;28;20053;-77
2024/04/06 05:26:34;;;;;;;15.38;4.05;;;10.80;100.00;;;;;;5005523;28;20060;-77
2024/04/06 05:29:00;;;;;;;12.98;4.22;;;10.80;100.00;;;;;;5013457;28;20057;-78
2024/04/06 05:31:26;;;;;;;12.38;3.70;;;10.80;100.00;;;;;;5002741;28;20157;-78
2024/04/06 05:33:51;;;;;;;10.80;4.10;;;10.80;100.00;;;;;;5005118;28;20169;-78
2024/04/06 05:36:18;;;;;;;13.63;4.78;;;10.90;100.00;;;;;;4989715;28;20046;-78
2024/04/06 05:38:44;;;;;;;9.10;3.72;;;10.90;100.00;;;;;;5016549;28;20084;-78
2024/04/06 05:41:09;;;;;;;11.45;4.50;;;11.00;100.00;;;;;;5004176;28;20058;-78
2024/04/06 05:43:35;;;;;;;9.63;4.40;;;11.00;100.00;;;;;;5004212;28;20051;-78
2024/04/06 05:46:05;;;;;;;11.70;4.13;;;11.10;100.00;;;;;;5002289;28;20053;-78
2024/04/06 05:48:33;;;;;;;9.57;3.97;;;11.20;100.00;;;;;;4997495;28;20807;-78
2024/04/06 05:50:59;;;;;;;14.52;5.35;;;11.30;100.00;;;;;;5011521;28;20054;-78
2024/04/06 05:53:25;;;;;;;12.80;4.07;;;11.40;100.00;;;;;;4994970;28;20554;-78
2024/04/06 05:55:51;;;;;;;12.73;3.90;;;11.60;100.00;;;;;;5003154;28;20046;-78
2024/04/06 05:58:18;;;;;;;11.80;3.90;;;11.60;100.00;;;;;;5006325;28;20119;-78
2024/04/06 06:00:44;;;;;;;11.93;4.30;;;11.70;100.00;;;;;;4995492;28;20056;-78
2024/04/06 06:03:10;;;;;;;14.63;3.85;;;11.70;100.00;;;;;;5002145;28;20157;-78
2024/04/06 06:05:35;;;;;;;11.57;4.18;;;11.80;100.00;;;;;;5015279;28;20061;-78
2024/04/06 06:08:01;;;;;;;10.30;4.15;;;11.80;100.00;;;;;;5013923;28;20057;-77
2024/04/06 06:10:27;;;;;;;11.63;3.72;;;11.90;100.00;;;;;;4995683;28;20061;-77
2024/04/06 06:12:53;;;;;;;10.40;3.63;;;11.90;100.00;;;;;;5012029;28;20054;-80
2024/04/06 06:15:19;;;;;;;11.60;3.33;;;12.10;100.00;;;;;;5007476;28;20084;-79
2024/04/06 06:17:45;;;;;;;16.92;3.88;;;12.20;100.00;;;;;;4993563;28;20053;-78
2024/04/06 06:20:12;;;;;;;12.43;3.25;;;12.40;100.00;;;;;;4985177;28;20053;-78
2024/04/06 06:22:38;;;;;;;11.43;3.33;;;12.50;100.00;;;;;;4997736;28;20057;-78
2024/04/06 06:25:04;;;;;;;13.65;3.67;;;12.70;100.00;;;;;;5002943;28;20533;-78
2024/04/06 06:27:30;;;;;;;15.75;3.47;;;12.80;100.00;;;;;;5003244;28;20054;-78
2024/04/06 06:29:56;;;;;;;12.05;3.38;;;13.00;100.00;;;;;;5003638;28;20137;-78
2024/04/06 06:32:23;;;;;;;7.75;3.10;;;13.10;100.00;;;;;;5002524;28;20045;-78
2024/04/06 06:34:49;;;;;;;11.20;3.03;;;13.20;100.00;;;;;;5002498;28;20045;-78
2024/04/06 06:37:15;;;;;;;12.82;3.92;;;13.30;100.00;;;;;;5005129;28;20045;-76
2024/04/06 06:39:41;;;;;;;13.13;3.60;;;13.30;100.00;;;;;;4992904;28;20046;-76
2024/04/06 06:42:11;;;;;;;9.77;2.75;;;13.30;100.00;;;;;;5018121;28;20144;-77
2024/04/06 06:44:37;;;;;;;11.05;3.17;;;13.30;100.00;;;;;;5012807;28;20046;-76
2024/04/06 06:47:05;;;;;;;11.20;2.90;;;13.20;100.00;;;;;;5019385;28;20122;-79
2024/04/06 06:49:32;;;;;;;9.75;2.55;;;13.30;100.00;;;;;;5020470;28;20042;-78
2024/04/06 06:51:58;;;;;;;12.05;3.17;;;13.30;100.00;;;;;;5010302;28;20056;-78
2024/04/06 06:54:26;;;;;;;11.40;3.15;;;13.30;100.00;;;;;;4986613;28;20053;-78
2024/04/06 06:56:51;;;;;;;12.20;3.88;;;13.30;100.00;;;;;;4992231;28;20100;-76
2024/04/06 06:59:17;;;;;;;9.52;2.85;;;13.40;100.00;;;;;;5010260;28;20046;-80
2024/04/06 07:01:43;;;;;;;17.00;3.03;;;13.50;100.00;;;;;;4993074;28;20286;-79
2024/04/06 07:04:09;;;;;;;5.60;2.78;;;13.50;100.00;;;;;;5003132;28;20548;-76
2024/04/06 07:06:35;;;;;;;9.60;3.00;;;13.60;100.00;;;;;;5005178;28;20060;-77
2024/04/06 07:09:03;;;;;;;8.57;2.70;;;13.70;100.00;;;;;;4992973;28;20066;-80
2024/04/06 07:11:29;;;;;;;7.93;2.33;;;13.70;100.00;;;;;;5007976;28;20050;-79
2024/04/06 07:13:55;;;;;;;13.65;2.72;;;13.70;100.00;;;;;;5008056;28;20050;-81
2024/04/06 07:16:21;;;;;;;15.95;3.15;;;13.80;100.00;;;;;;4991840;28;20050;-78
2024/04/06 07:18:47;;;;;;;8.35;2.45;;;13.80;100.00;;;;;;5006980;28;20478;-80
2024/04/06 07:21:14;;;;;;;7.00;2.17;;;13.80;100.00;;;;;;5008282;28;20126;-79
2024/04/06 07:23:41;;;;;;;12.77;2.45;;;13.80;100.00;;;;;;5001120;28;20075;-78
2024/04/06 07:26:07;;;;;;;10.20;2.60;;;13.80;100.00;;;;;;5005709;28;20065;-78
2024/04/06 07:28:36;;;;;;;12.52;3.00;;;13.80;100.00;;;;;;4989687;28;20604;-78
2024/04/06 07:31:03;;;;;;;10.48;2.88;;;13.90;100.00;;;;;;5006007;28;20096;-78
2024/04/06 07:33:29;;;;;;;15.02;2.63;;;14.00;100.00;;;;;;5004271;28;20061;-78
2024/04/06 07:35:55;;;;;;;9.30;2.20;;;14.20;100.00;;;;;;5006034;28;20724;-78
2024/04/06 07:38:21;;;;;;;6.32;2.08;;;14.40;100.00;;;;;;5005876;28;20042;-78
2024/04/06 07:40:59;;;;;;;15.70;3.03;;;14.50;100.00;;;;;;5005161;28;20121;-78
2024/04/06 07:43:26;;;;;;;11.20;2.58;;;14.60;100.00;;;;;;5004748;28;20096;-78
2024/04/06 07:45:52;;;;;;;11.77;2.35;;;14.70;100.00;;;;;;5005008;28;20415;-78
2024/04/06 07:48:18;;;;;;;12.70;2.35;;;14.80;100.00;;;;;;5005676;28;20065;-78
2024/04/06 07:50:44;;;;;;;9.43;2.00;;;14.90;100.00;;;;;;5004364;28;20503;-78
2024/04/06 07:53:11;;;;;;;12.52;2.00;;;15.00;100.00;;;;;;4989264;28;20057;-77
2024/04/06 07:55:37;;;;;;;19.05;2.53;;;15.20;100.00;;;;;;5004545;28;20046;-78
2024/04/06 07:58:03;;;;;;;14.05;2.33;;;15.30;100.00;;;;;;5005169;28;20128;-77
2024/04/06 08:00:28;;;;;;;11.10;2.20;;;15.40;100.00;;;;;;5005138;28;20458;-78
2024/04/06 08:02:54;;;;;;;11.80;2.53;;;15.50;100.00;;;;;;5004620;28;20073;-78
2024/04/06 08:05:20;;;;;;;13.27;2.50;;;15.60;100.00;;;;;;4989143;28;20092;-78
2024/04/06 08:07:46;;;;;;;9.45;2.17;;;16.10;100.00;;;;;;4989536;28;20061;-78
2024/04/06 08:10:20;;;;;;;18.60;2.40;;;16.60;100.00;;;;;;4987610;28;20060;-78
2024/04/06 08:12:47;;;;;;;6.95;1.90;;;17.00;100.00;;;;;;4987878;28;20053;-78
2024/04/06 08:15:13;;;;;;;13.18;2.55;;;17.20;100.00;;;;;;5003820;28;20407;-78
2024/04/06 08:17:41;;;;;;;10.35;2.33;;;17.00;100.00;;;;;;5005451;28;20846;-78
2024/04/06 08:20:10;;;;;;;15.05;2.13;;;17.10;100.00;;;;;;5004783;28;20049;-78
2024/04/06 08:22:36;;;;;;;9.30;1.90;;;17.30;100.00;;;;;;5004949;28;20054;-78
2024/04/06 08:25:05;;;;;;;8.05;2.00;;;17.40;100.00;;;;;;5005026;28;20073;-78
2024/04/06 08:27:35;;;;;;;13.80;2.08;;;17.50;100.00;;;;;;5005342;28;20057;-78
2024/04/06 08:30:12;;;;;;;7.15;1.88;;;17.20;100.00;;;;;;5003405;28;20073;-78
2024/04/06 08:32:40;;;;;;;9.85;2.10;;;17.10;100.00;;;;;;5005019;28;20386;-78
2024/04/06 08:35:14;;;;;;;11.00;2.33;;;17.30;100.00;;;;;;4988358;28;20128;-78
2024/04/06 08:37:41;;;;;;;13.30;2.13;;;17.60;100.00;;;;;;4987747;28;20065;-78
2024/04/06 08:40:09;;;;;;;10.25;2.10;;;18.10;100.00;;;;;;4987692;28;20506;-78
2024/04/06 08:42:40;;;;;;;15.70;2.10;;;18.20;100.00;;;;;;5004534;28;20045;-78
2024/04/06 08:45:08;;;;;;;12.52;1.58;;;18.10;100.00;;;;;;5004307;28;20135;-78
2024/04/06 08:47:35;;;;;;;9.95;1.90;;;18.30;100.00;;;;;;4988020;28;20062;-79
2024/04/06 08:50:09;;;;;;;14.80;1.98;;;18.50;100.00;;;;;;4989059;28;20053;-80
2024/04/06 08:52:38;;;;;;;14.02;2.20;;;18.70;100.00;;;;;;5003630;28;20415;-79
2024/04/06 08:55:11;;;;;;;9.57;2.33;;;19.00;100.00;;;;;;5003411;28;20054;-79
2024/04/06 08:57:39;;;;;;;11.85;2.13;;;19.10;100.00;;;;;;5000323;28;20050;-78
2024/04/06 09:00:09;;;;;;;12.32;1.75;;;19.20;100.00;;;;;;5003620;28;20050;-78
2024/04/06 09:02:36;;;;;;;11.10;2.13;;;19.00;100.00;;;;;;5002018;28;20050;-79
2024/04/06 09:05:05;;;;;;;50.38;5.55;;;19.30;100.00;;;;;;4986847;28;20065;-79
2024/04/06 09:07:31;;;;;;;19.40;2.85;;;19.30;100.00;;;;;;5002827;28;20058;-79
2024/04/06 09:09:58;;;;;;;26.17;3.60;;;19.50;100.00;;;;;;4988016;28;20069;-80
2024/04/06 09:12:24;;;;;;;48.10;6.20;;;19.70;100.00;;;;;;4987855;28;20054;-79
2024/04/06 09:14:50;;;;;;;16.67;2.20;;;19.90;100.00;;;;;;5002202;28;20050;-80
2024/04/06 09:17:18;;;;;;;17.15;2.63;;;20.00;100.00;;;;;;4987670;28;20085;-80
2024/04/06 09:19:44;;;;;;;6.35;2.40;;;20.20;100.00;;;;;;5003640;28;20122;-79
2024/04/06 09:22:11;;;;;;;12.32;2.08;;;20.40;100.00;;;;;;4996127;28;20406;-80
2024/04/06 09:24:37;;;;;;;16.00;2.75;;;20.60;100.00;;;;;;4989307;28;20046;-80
2024/04/06 09:27:16;;;;;;;18.85;2.28;;;20.50;100.00;;;;;;5005420;28;20498;-80
2024/04/06 09:29:47;;;;;;;15.23;2.25;;;20.30;100.00;;;;;;5003201;28;20058;-80
2024/04/06 09:32:21;;;;;;;12.80;2.25;;;20.40;100.00;;;;;;5002700;28;20100;-80
2024/04/06 09:34:51;;;;;;;13.13;1.90;;;20.30;100.00;;;;;;5003009;28;20517;-80
2024/04/06 09:37:41;;;;;;;15.18;1.92;;;20.30;100.00;;;;;;5003809;28;20096;-81
2024/04/06 09:40:08;;;;;;;18.30;1.70;;;20.60;100.00;;;;;;4991330;28;20057;-81
2024/04/06 09:42:38;;;;;;;8.90;1.40;;;20.70;100.00;;;;;;4992736;28;20511;-80
2024/04/06 09:45:06;;;;;;;12.57;1.92;;;21.20;100.00;;;;;;4987969;28;20096;-78
2024/04/06 09:47:33;;;;;;;12.90;2.08;;;21.10;100.00;;;;;;5003151;28;20784;-78
2024/04/06 09:49:59;;;;;;;11.77;1.98;;;20.80;100.00;;;;;;5000728;28;20054;-78
2024/04/06 09:52:28;;;;;;;15.93;2.08;;;20.70;100.00;;;;;;5005176;28;20060;-78
2024/04/06 09:54:54;;;;;;;11.48;2.58;;;20.90;100.00;;;;;;5007920;28;20061;-78
2024/04/06 09:57:21;;;;;;;10.88;1.98;;;21.00;100.00;;;;;;5005850;28;20100;-78
2024/04/06 09:59:47;;;;;;;12.65;3.50;;;21.20;100.00;;;;;;4996186;28;20050;-78
2024/04/06 10:02:23;;;;;;;13.40;2.03;;;21.20;100.00;;;;;;5002934;28;20049;-78
2024/04/06 10:04:56;;;;;;;14.07;2.20;;;21.10;100.00;;;;;;5001673;28;20045;-78
2024/04/06 10:07:30;;;;;;;15.93;2.10;;;21.20;100.00;;;;;;5007325;28;20483;-78
2024/04/06 10:10:00;;;;;;;13.48;2.30;;;21.30;100.00;;;;;;5004658;28;20057;-78
2024/04/06 10:12:43;;;;;;;11.57;2.08;;;21.40;100.00;;;;;;5001992;28;20050;-77
2024/04/06 10:15:14;;;;;;;9.38;1.60;;;21.50;100.00;;;;;;5002682;28;20045;-78
2024/04/06 10:17:45;;;;;;;12.15;1.98;;;21.70;100.00;;;;;;4994904;28;20588;-78
2024/04/06 10:20:13;;;;;;;9.93;1.70;;;21.50;100.00;;;;;;4998673;28;20731;-78
2024/04/06 10:23:03;;;;;;;9.93;1.67;;;21.50;100.00;;;;;;4984201;28;20077;-77
2024/04/06 10:25:37;;;;;;;8.98;1.52;;;21.40;100.00;;;;;;4994876;28;20061;-77
2024/04/06 10:28:05;;;;;;;10.23;2.30;;;21.30;100.00;;;;;;4997730;28;20069;-76
2024/04/06 10:30:37;;;;;;;8.73;2.33;;;20.60;100.00;;;;;;5002563;28;20066;-76
2024/04/06 10:33:04;;;;;;;5.97;1.65;;;20.30;100.00;;;;;;5006022;28;20092;-79
2024/04/06 10:35:30;;;;;;;12.43;2.05;;;20.50;100.00;;;;;;4991786;28;20053;-75
2024/04/06 10:37:56;;;;;;;12.70;2.13;;;20.70;100.00;;;;;;4986179;28;20053;-76
2024/04/06 10:40:23;;;;;;;9.82;1.50;;;20.90;100.00;;;;;;5002150;28;20089;-77
2024/04/06 10:42:50;;;;;;;15.75;1.92;;;20.90;100.00;;;;;;5001892;28;20169;-78
2024/04/06 10:45:16;;;;;;;9.65;1.90;;;21.00;100.00;;;;;;5008517;28;20509;-77
2024/04/06 10:47:43;;;;;;;8.20;1.70;;;21.50;100.00;;;;;;5005568;28;20058;-77
2024/04/06 10:50:09;;;;;;;11.20;2.10;;;21.30;100.00;;;;;;4988536;28;20049;-77
2024/04/06 10:52:40;;;;;;;9.45;1.77;;;21.40;100.00;;;;;;5011903;28;20538;-77
2024/04/06 10:55:09;;;;;;;7.75;2.08;;;21.40;100.00;;;;;;5006734;28;20065;-77
2024/04/06 10:57:38;;;;;;;7.28;1.77;;;21.60;100.00;;;;;;5010172;28;20624;-77
2024/04/06 11:00:10;;;;;;;6.28;1.40;;;21.80;100.00;;;;;;5002254;28;20124;-78
2024/04/06 11:02:40;;;;;;;11.60;1.98;;;22.20;100.00;;;;;;4999484;28;20056;-78
2024/04/06 11:05:10;;;;;;;10.88;1.50;;;22.40;100.00;;;;;;4997687;28;20053;-78
2024/04/06 11:07:37;;;;;;;10.98;2.05;;;22.60;100.00;;;;;;4983973;28;20430;-79
2024/04/06 11:10:04;;;;;;;7.13;1.60;;;22.40;100.00;;;;;;5001431;28;20058;-78
2024/04/06 11:12:30;;;;;;;11.70;1.60;;;23.00;100.00;;;;;;5002380;28;20963;-79
2024/04/06 11:15:00;;;;;;;11.38;1.65;;;23.60;100.00;;;;;;4983511;28;20065;-78
2024/04/06 11:17:27;;;;;;;8.75;1.65;;;24.20;98.60;;;;;;4986066;28;20096;-78
2024/04/06 11:19:54;;;;;;;44.72;6.80;;;24.40;100.00;;;;;;5001289;28;20069;-78
2024/04/06 11:22:21;;;;;;;19.48;4.55;;;24.50;94.80;;;;;;4986151;28;20049;-78
2024/04/06 11:24:51;;;;;;;13.55;4.03;;;24.60;98.30;;;;;;4987095;28;20053;-78
2024/04/06 11:27:24;;;;;;;11.52;3.08;;;24.80;93.50;;;;;;5005349;28;20482;-79
2024/04/06 11:29:51;;;;;;;6.43;1.58;;;25.00;83.30;;;;;;5006301;28;20659;-78
2024/04/06 11:32:22;;;;;;;15.77;2.15;;;25.00;73.70;;;;;;5004445;28;20064;-78
2024/04/06 11:34:49;;;;;;;11.05;1.70;;;25.00;81.80;;;;;;5004302;28;20107;-77
2024/04/06 11:37:17;;;;;;;10.23;2.20;;;25.70;71.60;;;;;;4989725;28;20054;-77
2024/04/06 11:39:44;;;;;;;5.15;2.00;;;25.40;59.90;;;;;;4989980;28;20053;-77
2024/04/06 11:42:10;;;;;;;16.20;1.77;;;25.60;62.60;;;;;;4990073;28;20053;-77
2024/04/06 11:44:35;;;;;;;11.27;1.85;;;26.20;62.90;;;;;;4990586;28;20053;-77
2024/04/06 11:47:02;;;;;;;11.85;1.60;;;26.70;59.20;;;;;;5005541;28;20057;-77
2024/04/06 11:49:28;;;;;;;5.40;1.48;;;26.80;55.40;;;;;;5000079;28;20073;-77
2024/04/06 11:51:54;;;;;;;5.38;1.48;;;26.80;55.80;;;;;;5005818;28;20548;-77
2024/04/06 11:54:20;;;;;;;6.03;1.30;;;26.60;57.70;;;;;;5005700;28;20054;-78
2024/04/06 11:56:46;;;;;;;9.23;1.58;;;26.90;57.10;;;;;;5005389;28;20558;-77
2024/04/06 11:59:12;;;;;;;10.32;1.42;;;26.60;53.10;;;;;;5006273;28;20103;-79
2024/04/06 12:01:40;;;;;;;6.22;1.27;;;26.70;56.60;;;;;;5007813;28;20057;-79
2024/04/06 12:04:07;;;;;;;4.18;1.20;;;27.20;53.90;;;;;;4988695;28;20157;-79
2024/04/06 12:06:33;;;;;;;5.25;1.50;;;27.60;54.50;;;;;;5005206;28;20483;-78
2024/04/06 12:09:00;;;;;;;12.45;1.48;;;27.10;52.90;;;;;;5003264;28;20046;-77
2024/04/06 12:11:26;;;;;;;10.48;1.77;;;27.30;54.60;;;;;;5001830;28;20519;-78
2024/04/06 12:13:53;;;;;;;5.75;1.40;;;26.80;56.20;;;;;;5005164;28;20459;-78
2024/04/06 12:16:19;;;;;;;6.35;1.33;;;26.40;54.80;;;;;;5003198;28;20049;-79
2024/04/06 12:18:45;;;;;;;5.47;1.63;;;26.50;56.30;;;;;;5007912;28;20779;-78
2024/04/06 12:21:10;;;;;;;8.85;1.73;;;26.50;57.30;;;;;;4989011;28;20222;-78
2024/04/06 12:23:36;;;;;;;7.05;1.80;;;26.50;55.60;;;;;;5005364;28;20557;-78
2024/04/06 12:26:02;;;;;;;6.53;1.52;;;27.00;56.70;;;;;;5005823;28;20064;-78
2024/04/06 12:28:28;;;;;;;8.13;1.60;;;26.80;55.30;;;;;;4989773;28;20050;-78
2024/04/06 12:30:54;;;;;;;18.92;2.30;;;27.20;58.70;;;;;;5004881;28;20064;-79